sensor_id;sensor_type;location;lat;lon;timestamp;P1;durP1;ratioP1;P2;durP2;ratioP2
25503;SDS011;13410;52.114;5.718;2022-09-09T00:12:24;2.85;;;1.48;;
25503;SDS011;13410;52.114;5.718;2022-09-09T00:15:05;2.97;;;1.60;;
25503;SDS011;13410;52.114;5.718;2022-09-09T00:17:56;2.90;;;1.20;;
25503;SDS011;13410;52.114;5.718;2022-09-09T00:20:32;1.58;;;1.30;;
25503;SDS011;13410;52.114;5.718;2022-09-09T00:23:17;3.17;;;1.75;;
25503;SDS011;13410;52.114;5.718;2022-09-09T00:29:00;2.40;;;1.30;;
25503;SDS011;13410;52.114;5.718;2022-09-09T00:31:29;3.10;;;1.23;;
25503;SDS011;13410;52.114;5.718;2022-09-09T00:34:18;1.70;;;1.23;;
25503;SDS011;13410;52.114;5.718;2022-09-09T00:36:44;3.08;;;1.33;;
25503;SDS011;13410;52.114;5.718;2022-09-09T00:39:21;2.75;;;1.33;;
25503;SDS011;13410;52.114;5.718;2022-09-09T00:44:37;4.68;;;1.58;;
25503;SDS011;13410;52.114;5.718;2022-09-09T00:58:17;3.50;;;2.85;;
25503;SDS011;13410;52.114;5.718;2022-09-09T01:05:54;3.60;;;2.20;;
25503;SDS011;13410;52.114;5.718;2022-09-09T01:11:48;4.03;;;2.65;;
25503;SDS011;13410;52.114;5.718;2022-09-09T01:17:24;1.95;;;1.42;;
25503;SDS011;13410;52.114;5.718;2022-09-09T01:27:50;3.33;;;2.30;;
25503;SDS011;13410;52.114;5.718;2022-09-09T01:30:18;2.33;;;1.80;;
25503;SDS011;13410;52.114;5.718;2022-09-09T01:32:45;4.95;;;2.88;;
25503;SDS011;13410;52.114;5.718;2022-09-09T01:38:13;2.17;;;1.70;;
25503;SDS011;13410;52.114;5.718;2022-09-09T01:40:40;4.47;;;1.98;;
25503;SDS011;13410;52.114;5.718;2022-09-09T01:43:06;2.15;;;1.73;;
25503;SDS011;13410;52.114;5.718;2022-09-09T01:45:32;3.88;;;2.20;;
25503;SDS011;13410;52.114;5.718;2022-09-09T01:47:58;4.05;;;2.50;;
25503;SDS011;13410;52.114;5.718;2022-09-09T01:50:25;2.95;;;2.40;;
25503;SDS011;13410;52.114;5.718;2022-09-09T01:52:52;3.08;;;2.15;;
25503;SDS011;13410;52.114;5.718;2022-09-09T01:55:56;4.15;;;2.63;;
25503;SDS011;13410;52.114;5.718;2022-09-09T02:03:46;3.45;;;2.58;;
25503;SDS011;13410;52.114;5.718;2022-09-09T02:09:13;2.72;;;2.35;;
25503;SDS011;13410;52.114;5.718;2022-09-09T02:11:40;4.10;;;2.30;;
25503;SDS011;13410;52.114;5.718;2022-09-09T02:14:10;3.03;;;2.10;;
25503;SDS011;13410;52.114;5.718;2022-09-09T02:16:42;3.72;;;2.28;;
25503;SDS011;13410;52.114;5.718;2022-09-09T02:19:25;4.63;;;3.00;;
25503;SDS011;13410;52.114;5.718;2022-09-09T02:21:57;3.17;;;1.42;;
25503;SDS011;13410;52.114;5.718;2022-09-09T02:24:25;4.25;;;2.90;;
25503;SDS011;13410;52.114;5.718;2022-09-09T02:26:54;3.38;;;2.38;;
25503;SDS011;13410;52.114;5.718;2022-09-09T02:29:23;5.78;;;2.53;;
25503;SDS011;13410;52.114;5.718;2022-09-09T02:31:57;4.35;;;2.58;;
25503;SDS011;13410;52.114;5.718;2022-09-09T02:34:28;4.82;;;2.13;;
25503;SDS011;13410;52.114;5.718;2022-09-09T02:36:56;4.40;;;3.30;;
25503;SDS011;13410;52.114;5.718;2022-09-09T02:39:24;3.83;;;2.70;;
25503;SDS011;13410;52.114;5.718;2022-09-09T02:41:50;4.32;;;2.65;;
25503;SDS011;13410;52.114;5.718;2022-09-09T02:44:17;3.05;;;2.63;;
25503;SDS011;13410;52.114;5.718;2022-09-09T02:52:08;3.00;;;2.60;;
25503;SDS011;13410;52.114;5.718;2022-09-09T02:54:43;6.95;;;3.35;;
25503;SDS011;13410;52.114;5.718;2022-09-09T02:59:44;4.38;;;2.40;;
25503;SDS011;13410;52.114;5.718;2022-09-09T03:02:10;3.72;;;2.45;;
25503;SDS011;13410;52.114;5.718;2022-09-09T03:04:37;3.28;;;1.77;;
25503;SDS011;13410;52.114;5.718;2022-09-09T03:07:04;5.10;;;3.72;;
25503;SDS011;13410;52.114;5.718;2022-09-09T03:09:30;3.20;;;2.50;;
25503;SDS011;13410;52.114;5.718;2022-09-09T03:11:56;2.67;;;2.28;;
25503;SDS011;13410;52.114;5.718;2022-09-09T03:14:22;5.00;;;3.08;;
25503;SDS011;13410;52.114;5.718;2022-09-09T03:16:50;4.70;;;3.55;;
25503;SDS011;13410;52.114;5.718;2022-09-09T03:19:16;2.78;;;1.98;;
25503;SDS011;13410;52.114;5.718;2022-09-09T03:21:43;3.47;;;2.65;;
25503;SDS011;13410;52.114;5.718;2022-09-09T03:24:10;7.07;;;3.00;;
25503;SDS011;13410;52.114;5.718;2022-09-09T03:26:35;5.13;;;2.97;;
25503;SDS011;13410;52.114;5.718;2022-09-09T03:29:02;6.63;;;3.45;;
25503;SDS011;13410;52.114;5.718;2022-09-09T03:31:31;4.30;;;3.78;;
25503;SDS011;13410;52.114;5.718;2022-09-09T03:33:57;5.30;;;3.72;;
25503;SDS011;13410;52.114;5.718;2022-09-09T03:36:23;3.63;;;2.22;;
25503;SDS011;13410;52.114;5.718;2022-09-09T03:38:51;3.35;;;3.05;;
25503;SDS011;13410;52.114;5.718;2022-09-09T03:41:16;10.48;;;3.42;;
25503;SDS011;13410;52.114;5.718;2022-09-09T03:43:43;4.20;;;2.00;;
25503;SDS011;13410;52.114;5.718;2022-09-09T03:46:09;4.05;;;2.13;;
25503;SDS011;13410;52.114;5.718;2022-09-09T03:48:34;3.90;;;3.20;;
25503;SDS011;13410;52.114;5.718;2022-09-09T03:51:00;5.63;;;3.60;;
25503;SDS011;13410;52.114;5.718;2022-09-09T03:53:27;5.10;;;2.78;;
25503;SDS011;13410;52.114;5.718;2022-09-09T03:55:54;4.18;;;2.80;;
25503;SDS011;13410;52.114;5.718;2022-09-09T03:58:23;4.35;;;3.67;;
25503;SDS011;13410;52.114;5.718;2022-09-09T04:00:56;6.65;;;4.00;;
25503;SDS011;13410;52.114;5.718;2022-09-09T04:03:23;3.45;;;2.10;;
25503;SDS011;13410;52.114;5.718;2022-09-09T04:05:50;4.40;;;3.30;;
25503;SDS011;13410;52.114;5.718;2022-09-09T04:08:17;3.05;;;2.13;;
25503;SDS011;13410;52.114;5.718;2022-09-09T04:10:47;5.72;;;2.97;;
25503;SDS011;13410;52.114;5.718;2022-09-09T04:13:14;6.28;;;3.40;;
25503;SDS011;13410;52.114;5.718;2022-09-09T04:15:42;5.50;;;2.53;;
25503;SDS011;13410;52.114;5.718;2022-09-09T04:18:08;5.32;;;3.42;;
25503;SDS011;13410;52.114;5.718;2022-09-09T04:20:34;3.28;;;2.38;;
25503;SDS011;13410;52.114;5.718;2022-09-09T04:23:00;3.47;;;2.08;;
25503;SDS011;13410;52.114;5.718;2022-09-09T04:25:26;3.65;;;2.35;;
25503;SDS011;13410;52.114;5.718;2022-09-09T04:27:53;6.75;;;3.58;;
25503;SDS011;13410;52.114;5.718;2022-09-09T04:30:23;5.57;;;3.50;;
25503;SDS011;13410;52.114;5.718;2022-09-09T04:32:49;3.58;;;2.00;;
25503;SDS011;13410;52.114;5.718;2022-09-09T04:35:15;6.97;;;3.60;;
25503;SDS011;13410;52.114;5.718;2022-09-09T04:37:41;3.40;;;2.25;;
25503;SDS011;13410;52.114;5.718;2022-09-09T04:40:07;3.50;;;1.98;;
25503;SDS011;13410;52.114;5.718;2022-09-09T04:42:38;5.78;;;2.70;;
25503;SDS011;13410;52.114;5.718;2022-09-09T04:45:04;6.78;;;3.40;;
25503;SDS011;13410;52.114;5.718;2022-09-09T04:47:31;2.25;;;1.52;;
25503;SDS011;13410;52.114;5.718;2022-09-09T04:49:57;3.10;;;1.60;;
25503;SDS011;13410;52.114;5.718;2022-09-09T04:52:23;2.53;;;1.75;;
25503;SDS011;13410;52.114;5.718;2022-09-09T04:54:48;6.07;;;2.53;;
25503;SDS011;13410;52.114;5.718;2022-09-09T04:57:14;3.00;;;1.67;;
25503;SDS011;13410;52.114;5.718;2022-09-09T04:59:40;5.63;;;3.53;;
25503;SDS011;13410;52.114;5.718;2022-09-09T05:02:05;3.97;;;2.08;;
25503;SDS011;13410;52.114;5.718;2022-09-09T05:04:31;4.93;;;2.70;;
25503;SDS011;13410;52.114;5.718;2022-09-09T05:06:58;4.20;;;2.33;;
25503;SDS011;13410;52.114;5.718;2022-09-09T05:09:23;4.13;;;2.35;;
25503;SDS011;13410;52.114;5.718;2022-09-09T05:11:49;4.47;;;2.60;;
25503;SDS011;13410;52.114;5.718;2022-09-09T05:14:15;4.63;;;2.67;;
25503;SDS011;13410;52.114;5.718;2022-09-09T05:16:41;3.42;;;2.45;;
25503;SDS011;13410;52.114;5.718;2022-09-09T05:19:10;4.50;;;2.08;;
25503;SDS011;13410;52.114;5.718;2022-09-09T05:21:35;3.65;;;2.20;;
25503;SDS011;13410;52.114;5.718;2022-09-09T05:24:02;5.40;;;2.50;;
25503;SDS011;13410;52.114;5.718;2022-09-09T05:26:27;6.50;;;2.53;;
25503;SDS011;13410;52.114;5.718;2022-09-09T05:28:54;5.93;;;3.08;;
25503;SDS011;13410;52.114;5.718;2022-09-09T05:31:20;4.10;;;1.80;;
25503;SDS011;13410;52.114;5.718;2022-09-09T05:33:46;3.13;;;2.50;;
25503;SDS011;13410;52.114;5.718;2022-09-09T05:36:14;6.82;;;2.00;;
25503;SDS011;13410;52.114;5.718;2022-09-09T05:38:41;3.55;;;1.63;;
25503;SDS011;13410;52.114;5.718;2022-09-09T05:41:08;5.13;;;2.75;;
25503;SDS011;13410;52.114;5.718;2022-09-09T05:43:36;5.70;;;2.70;;
25503;SDS011;13410;52.114;5.718;2022-09-09T05:46:06;5.53;;;1.67;;
25503;SDS011;13410;52.114;5.718;2022-09-09T05:48:43;4.60;;;2.28;;
25503;SDS011;13410;52.114;5.718;2022-09-09T05:51:15;2.80;;;1.75;;
25503;SDS011;13410;52.114;5.718;2022-09-09T05:53:53;4.13;;;1.95;;
25503;SDS011;13410;52.114;5.718;2022-09-09T05:56:20;5.95;;;1.92;;
25503;SDS011;13410;52.114;5.718;2022-09-09T05:58:50;6.33;;;2.67;;
25503;SDS011;13410;52.114;5.718;2022-09-09T06:01:20;6.60;;;2.50;;
25503;SDS011;13410;52.114;5.718;2022-09-09T06:03:54;5.10;;;1.95;;
25503;SDS011;13410;52.114;5.718;2022-09-09T06:06:27;2.88;;;1.50;;
25503;SDS011;13410;52.114;5.718;2022-09-09T06:08:59;4.35;;;1.83;;
25503;SDS011;13410;52.114;5.718;2022-09-09T06:11:26;5.00;;;1.55;;
25503;SDS011;13410;52.114;5.718;2022-09-09T06:13:56;3.45;;;1.45;;
25503;SDS011;13410;52.114;5.718;2022-09-09T06:16:23;4.40;;;1.63;;
25503;SDS011;13410;52.114;5.718;2022-09-09T06:18:50;7.13;;;1.52;;
25503;SDS011;13410;52.114;5.718;2022-09-09T06:21:17;6.70;;;2.25;;
25503;SDS011;13410;52.114;5.718;2022-09-09T06:23:44;4.40;;;1.45;;
25503;SDS011;13410;52.114;5.718;2022-09-09T06:26:11;7.75;;;1.40;;
25503;SDS011;13410;52.114;5.718;2022-09-09T06:28:39;5.40;;;1.98;;
25503;SDS011;13410;52.114;5.718;2022-09-09T06:31:05;2.88;;;1.10;;
25503;SDS011;13410;52.114;5.718;2022-09-09T06:33:34;4.55;;;2.38;;
25503;SDS011;13410;52.114;5.718;2022-09-09T06:36:01;3.15;;;1.10;;
25503;SDS011;13410;52.114;5.718;2022-09-09T06:38:28;8.55;;;2.08;;
25503;SDS011;13410;52.114;5.718;2022-09-09T06:40:54;7.32;;;2.25;;
25503;SDS011;13410;52.114;5.718;2022-09-09T06:43:22;5.35;;;2.10;;
25503;SDS011;13410;52.114;5.718;2022-09-09T06:45:57;4.78;;;2.30;;
25503;SDS011;13410;52.114;5.718;2022-09-09T06:48:27;7.07;;;2.20;;
25503;SDS011;13410;52.114;5.718;2022-09-09T06:53:32;5.88;;;1.95;;
25503;SDS011;13410;52.114;5.718;2022-09-09T06:56:17;4.85;;;1.42;;
25503;SDS011;13410;52.114;5.718;2022-09-09T06:58:47;2.72;;;1.23;;
25503;SDS011;13410;52.114;5.718;2022-09-09T07:01:15;4.85;;;1.80;;
25503;SDS011;13410;52.114;5.718;2022-09-09T07:03:45;6.55;;;1.67;;
25503;SDS011;13410;52.114;5.718;2022-09-09T07:06:17;5.00;;;1.50;;
25503;SDS011;13410;52.114;5.718;2022-09-09T07:08:52;4.55;;;1.20;;
25503;SDS011;13410;52.114;5.718;2022-09-09T07:11:29;4.18;;;1.42;;
25503;SDS011;13410;52.114;5.718;2022-09-09T07:13:57;4.75;;;1.83;;
25503;SDS011;13410;52.114;5.718;2022-09-09T07:16:24;7.47;;;1.60;;
25503;SDS011;13410;52.114;5.718;2022-09-09T07:18:50;4.75;;;1.55;;
25503;SDS011;13410;52.114;5.718;2022-09-09T07:21:17;5.40;;;1.77;;
25503;SDS011;13410;52.114;5.718;2022-09-09T07:23:44;5.63;;;1.70;;
25503;SDS011;13410;52.114;5.718;2022-09-09T07:26:11;5.60;;;1.20;;
25503;SDS011;13410;52.114;5.718;2022-09-09T07:28:50;6.65;;;1.40;;
25503;SDS011;13410;52.114;5.718;2022-09-09T07:31:16;4.65;;;1.42;;
25503;SDS011;13410;52.114;5.718;2022-09-09T07:33:47;4.22;;;1.60;;
25503;SDS011;13410;52.114;5.718;2022-09-09T07:36:26;4.32;;;1.73;;
25503;SDS011;13410;52.114;5.718;2022-09-09T07:38:57;4.32;;;1.60;;
25503;SDS011;13410;52.114;5.718;2022-09-09T07:41:28;5.10;;;1.60;;
25503;SDS011;13410;52.114;5.718;2022-09-09T07:43:56;7.50;;;1.80;;
25503;SDS011;13410;52.114;5.718;2022-09-09T07:46:23;3.05;;;1.38;;
25503;SDS011;13410;52.114;5.718;2022-09-09T07:48:51;6.47;;;1.83;;
25503;SDS011;13410;52.114;5.718;2022-09-09T07:51:20;4.95;;;1.30;;
25503;SDS011;13410;52.114;5.718;2022-09-09T07:53:52;5.47;;;1.88;;
25503;SDS011;13410;52.114;5.718;2022-09-09T07:56:19;8.55;;;2.10;;
25503;SDS011;13410;52.114;5.718;2022-09-09T07:58:48;5.43;;;1.50;;
25503;SDS011;13410;52.114;5.718;2022-09-09T08:01:16;6.68;;;1.65;;
25503;SDS011;13410;52.114;5.718;2022-09-09T08:03:51;6.03;;;2.13;;
25503;SDS011;13410;52.114;5.718;2022-09-09T08:06:27;6.20;;;1.75;;
25503;SDS011;13410;52.114;5.718;2022-09-09T08:08:54;5.65;;;1.65;;
25503;SDS011;13410;52.114;5.718;2022-09-09T08:11:20;5.80;;;1.77;;
25503;SDS011;13410;52.114;5.718;2022-09-09T08:13:48;7.13;;;1.58;;
25503;SDS011;13410;52.114;5.718;2022-09-09T08:16:15;3.65;;;1.35;;
25503;SDS011;13410;52.114;5.718;2022-09-09T08:18:43;5.82;;;1.90;;
25503;SDS011;13410;52.114;5.718;2022-09-09T08:21:14;3.63;;;1.58;;
25503;SDS011;13410;52.114;5.718;2022-09-09T08:23:43;5.30;;;1.55;;
25503;SDS011;13410;52.114;5.718;2022-09-09T08:26:23;4.53;;;1.40;;
25503;SDS011;13410;52.114;5.718;2022-09-09T08:31:19;5.68;;;1.90;;
25503;SDS011;13410;52.114;5.718;2022-09-09T08:33:46;6.20;;;1.80;;
25503;SDS011;13410;52.114;5.718;2022-09-09T08:36:13;4.97;;;1.50;;
25503;SDS011;13410;52.114;5.718;2022-09-09T08:38:43;5.70;;;1.35;;
25503;SDS011;13410;52.114;5.718;2022-09-09T08:44:31;4.57;;;1.30;;
25503;SDS011;13410;52.114;5.718;2022-09-09T08:52:41;5.95;;;1.50;;
25503;SDS011;13410;52.114;5.718;2022-09-09T08:58:06;4.97;;;1.50;;
25503;SDS011;13410;52.114;5.718;2022-09-09T09:12:07;6.57;;;1.50;;
25503;SDS011;13410;52.114;5.718;2022-09-09T09:14:30;8.05;;;1.80;;
25503;SDS011;13410;52.114;5.718;2022-09-09T09:17:12;7.15;;;1.77;;
25503;SDS011;13410;52.114;5.718;2022-09-09T09:19:48;4.90;;;1.50;;
25503;SDS011;13410;52.114;5.718;2022-09-09T09:25:12;6.13;;;1.30;;
25503;SDS011;13410;52.114;5.718;2022-09-09T09:28:00;8.15;;;1.45;;
25503;SDS011;13410;52.114;5.718;2022-09-09T09:30:34;6.35;;;1.67;;
25503;SDS011;13410;52.114;5.718;2022-09-09T09:36:09;7.80;;;1.90;;
25503;SDS011;13410;52.114;5.718;2022-09-09T09:38:35;5.22;;;1.83;;
25503;SDS011;13410;52.114;5.718;2022-09-09T09:41:02;7.20;;;1.70;;
25503;SDS011;13410;52.114;5.718;2022-09-09T09:43:29;5.03;;;1.48;;
25503;SDS011;13410;52.114;5.718;2022-09-09T09:45:57;5.40;;;1.80;;
25503;SDS011;13410;52.114;5.718;2022-09-09T09:48:23;5.80;;;1.55;;
25503;SDS011;13410;52.114;5.718;2022-09-09T09:50:57;5.68;;;1.55;;
25503;SDS011;13410;52.114;5.718;2022-09-09T09:53:35;4.28;;;1.20;;
25503;SDS011;13410;52.114;5.718;2022-09-09T09:58:32;4.90;;;1.40;;
25503;SDS011;13410;52.114;5.718;2022-09-09T10:01:33;5.93;;;1.33;;
25503;SDS011;13410;52.114;5.718;2022-09-09T10:04:00;8.80;;;2.00;;
25503;SDS011;13410;52.114;5.718;2022-09-09T10:06:48;4.25;;;1.30;;
25503;SDS011;13410;52.114;5.718;2022-09-09T10:09:25;6.13;;;1.98;;
25503;SDS011;13410;52.114;5.718;2022-09-09T10:12:11;4.68;;;1.42;;
25503;SDS011;13410;52.114;5.718;2022-09-09T10:15:58;5.18;;;1.60;;
25503;SDS011;13410;52.114;5.718;2022-09-09T10:21:13;5.72;;;1.35;;
25503;SDS011;13410;52.114;5.718;2022-09-09T10:46:29;5.50;;;1.60;;
25503;SDS011;13410;52.114;5.718;2022-09-09T11:00:59;6.40;;;1.83;;
25503;SDS011;13410;52.114;5.718;2022-09-09T11:03:04;5.85;;;1.75;;
25503;SDS011;13410;52.114;5.718;2022-09-09T11:08:11;8.13;;;1.95;;
25503;SDS011;13410;52.114;5.718;2022-09-09T11:11:00;2.85;;;1.38;;
25503;SDS011;13410;52.114;5.718;2022-09-09T11:13:38;5.72;;;1.70;;
25503;SDS011;13410;52.114;5.718;2022-09-09T11:22:02;5.28;;;1.67;;
25503;SDS011;13410;52.114;5.718;2022-09-09T11:24:48;5.90;;;1.90;;
25503;SDS011;13410;52.114;5.718;2022-09-09T11:30:04;7.45;;;1.90;;
25503;SDS011;13410;52.114;5.718;2022-09-09T11:35:46;5.90;;;1.60;;
25503;SDS011;13410;52.114;5.718;2022-09-09T11:38:28;4.40;;;1.70;;
25503;SDS011;13410;52.114;5.718;2022-09-09T11:40:56;6.82;;;1.60;;
25503;SDS011;13410;52.114;5.718;2022-09-09T11:43:27;5.55;;;1.60;;
25503;SDS011;13410;52.114;5.718;2022-09-09T11:45:59;3.83;;;1.63;;
25503;SDS011;13410;52.114;5.718;2022-09-09T11:48:34;5.32;;;2.10;;
25503;SDS011;13410;52.114;5.718;2022-09-09T11:51:29;5.63;;;1.90;;
25503;SDS011;13410;52.114;5.718;2022-09-09T11:53:56;4.43;;;1.30;;
25503;SDS011;13410;52.114;5.718;2022-09-09T12:01:34;5.07;;;1.90;;
25503;SDS011;13410;52.114;5.718;2022-09-09T12:04:37;6.88;;;1.90;;
25503;SDS011;13410;52.114;5.718;2022-09-09T12:12:33;5.15;;;1.75;;
25503;SDS011;13410;52.114;5.718;2022-09-09T12:17:37;6.40;;;1.65;;
25503;SDS011;13410;52.114;5.718;2022-09-09T12:20:15;7.97;;;1.95;;
25503;SDS011;13410;52.114;5.718;2022-09-09T12:31:24;5.05;;;1.42;;
25503;SDS011;13410;52.114;5.718;2022-09-09T12:33:55;4.00;;;1.50;;
25503;SDS011;13410;52.114;5.718;2022-09-09T12:36:52;3.92;;;1.20;;
25503;SDS011;13410;52.114;5.718;2022-09-09T12:39:27;4.38;;;1.40;;
25503;SDS011;13410;52.114;5.718;2022-09-09T12:41:57;7.85;;;1.83;;
25503;SDS011;13410;52.114;5.718;2022-09-09T12:44:23;5.05;;;1.25;;
25503;SDS011;13410;52.114;5.718;2022-09-09T12:46:50;4.65;;;1.33;;
25503;SDS011;13410;52.114;5.718;2022-09-09T12:49:28;5.20;;;1.60;;
25503;SDS011;13410;52.114;5.718;2022-09-09T12:52:03;5.90;;;1.65;;
25503;SDS011;13410;52.114;5.718;2022-09-09T12:54:37;4.55;;;1.60;;
25503;SDS011;13410;52.114;5.718;2022-09-09T12:57:11;6.88;;;1.73;;
25503;SDS011;13410;52.114;5.718;2022-09-09T12:59:39;6.18;;;1.70;;
25503;SDS011;13410;52.114;5.718;2022-09-09T13:05:14;3.28;;;1.38;;
25503;SDS011;13410;52.114;5.718;2022-09-09T13:07:46;5.22;;;1.52;;
25503;SDS011;13410;52.114;5.718;2022-09-09T13:10:12;4.75;;;1.38;;
25503;SDS011;13410;52.114;5.718;2022-09-09T13:12:40;4.05;;;1.33;;
25503;SDS011;13410;52.114;5.718;2022-09-09T13:15:14;3.55;;;1.30;;
25503;SDS011;13410;52.114;5.718;2022-09-09T13:17:48;5.40;;;1.80;;
25503;SDS011;13410;52.114;5.718;2022-09-09T13:20:16;3.50;;;1.40;;
25503;SDS011;13410;52.114;5.718;2022-09-09T13:22:43;4.93;;;1.70;;
25503;SDS011;13410;52.114;5.718;2022-09-09T13:27:36;3.80;;;1.30;;
25503;SDS011;13410;52.114;5.718;2022-09-09T13:35:30;5.00;;;1.52;;
25503;SDS011;13410;52.114;5.718;2022-09-09T13:37:56;6.15;;;1.77;;
25503;SDS011;13410;52.114;5.718;2022-09-09T13:40:23;4.05;;;1.40;;
25503;SDS011;13410;52.114;5.718;2022-09-09T13:42:53;5.55;;;1.27;;
25503;SDS011;13410;52.114;5.718;2022-09-09T13:45:22;4.30;;;1.58;;
25503;SDS011;13410;52.114;5.718;2022-09-09T13:47:51;4.65;;;1.30;;
25503;SDS011;13410;52.114;5.718;2022-09-09T13:50:27;3.97;;;1.35;;
25503;SDS011;13410;52.114;5.718;2022-09-09T13:52:57;4.05;;;1.30;;
25503;SDS011;13410;52.114;5.718;2022-09-09T13:55:24;4.65;;;1.55;;
25503;SDS011;13410;52.114;5.718;2022-09-09T13:57:55;3.97;;;1.40;;
25503;SDS011;13410;52.114;5.718;2022-09-09T14:00:33;5.63;;;1.38;;
25503;SDS011;13410;52.114;5.718;2022-09-09T14:02:59;4.20;;;1.63;;
25503;SDS011;13410;52.114;5.718;2022-09-09T14:05:27;3.75;;;1.30;;
25503;SDS011;13410;52.114;5.718;2022-09-09T14:07:54;6.22;;;1.80;;
25503;SDS011;13410;52.114;5.718;2022-09-09T14:10:20;4.82;;;1.70;;
25503;SDS011;13410;52.114;5.718;2022-09-09T14:12:47;5.22;;;1.42;;
25503;SDS011;13410;52.114;5.718;2022-09-09T14:15:12;4.25;;;1.30;;
25503;SDS011;13410;52.114;5.718;2022-09-09T14:17:39;3.88;;;1.48;;
25503;SDS011;13410;52.114;5.718;2022-09-09T14:20:05;2.65;;;1.23;;
25503;SDS011;13410;52.114;5.718;2022-09-09T14:22:34;3.80;;;1.45;;
25503;SDS011;13410;52.114;5.718;2022-09-09T14:25:01;3.63;;;1.50;;
25503;SDS011;13410;52.114;5.718;2022-09-09T14:27:27;5.72;;;1.40;;
25503;SDS011;13410;52.114;5.718;2022-09-09T14:29:53;4.60;;;1.50;;
25503;SDS011;13410;52.114;5.718;2022-09-09T14:32:19;7.00;;;1.35;;
25503;SDS011;13410;52.114;5.718;2022-09-09T14:34:46;4.38;;;1.30;;
25503;SDS011;13410;52.114;5.718;2022-09-09T14:37:14;4.40;;;1.10;;
25503;SDS011;13410;52.114;5.718;2022-09-09T14:39:41;4.63;;;1.20;;
25503;SDS011;13410;52.114;5.718;2022-09-09T14:42:08;4.85;;;1.55;;
25503;SDS011;13410;52.114;5.718;2022-09-09T14:44:36;3.53;;;1.30;;
25503;SDS011;13410;52.114;5.718;2022-09-09T14:47:03;3.95;;;1.38;;
25503;SDS011;13410;52.114;5.718;2022-09-09T14:49:29;6.38;;;1.27;;
25503;SDS011;13410;52.114;5.718;2022-09-09T14:51:55;3.65;;;1.33;;
25503;SDS011;13410;52.114;5.718;2022-09-09T14:54:21;6.65;;;1.40;;
25503;SDS011;13410;52.114;5.718;2022-09-09T14:56:48;2.55;;;0.98;;
25503;SDS011;13410;52.114;5.718;2022-09-09T14:59:14;3.05;;;1.20;;
25503;SDS011;13410;52.114;5.718;2022-09-09T15:01:39;2.90;;;1.23;;
25503;SDS011;13410;52.114;5.718;2022-09-09T15:04:05;4.18;;;1.20;;
25503;SDS011;13410;52.114;5.718;2022-09-09T15:06:33;3.75;;;1.00;;
25503;SDS011;13410;52.114;5.718;2022-09-09T15:09:03;2.67;;;1.10;;
25503;SDS011;13410;52.114;5.718;2022-09-09T15:11:30;3.65;;;1.45;;
25503;SDS011;13410;52.114;5.718;2022-09-09T15:14:02;3.38;;;1.05;;
25503;SDS011;13410;52.114;5.718;2022-09-09T15:16:28;3.63;;;1.50;;
25503;SDS011;13410;52.114;5.718;2022-09-09T15:18:56;5.70;;;1.40;;
25503;SDS011;13410;52.114;5.718;2022-09-09T15:21:23;2.90;;;1.20;;
25503;SDS011;13410;52.114;5.718;2022-09-09T15:23:53;4.15;;;1.10;;
25503;SDS011;13410;52.114;5.718;2022-09-09T15:26:19;4.63;;;1.65;;
25503;SDS011;13410;52.114;5.718;2022-09-09T15:28:46;3.78;;;1.40;;
25503;SDS011;13410;52.114;5.718;2022-09-09T15:33:55;5.30;;;1.70;;
25503;SDS011;13410;52.114;5.718;2022-09-09T15:36:28;4.90;;;1.48;;
25503;SDS011;13410;52.114;5.718;2022-09-09T15:38:57;2.92;;;1.30;;
25503;SDS011;13410;52.114;5.718;2022-09-09T15:41:23;3.70;;;1.60;;
25503;SDS011;13410;52.114;5.718;2022-09-09T15:43:54;2.92;;;1.40;;
25503;SDS011;13410;52.114;5.718;2022-09-09T15:46:26;4.40;;;1.50;;
25503;SDS011;13410;52.114;5.718;2022-09-09T15:48:55;4.78;;;1.50;;
25503;SDS011;13410;52.114;5.718;2022-09-09T15:51:31;5.63;;;1.55;;
25503;SDS011;13410;52.114;5.718;2022-09-09T15:53:57;2.90;;;1.30;;
25503;SDS011;13410;52.114;5.718;2022-09-09T15:56:24;4.60;;;1.40;;
25503;SDS011;13410;52.114;5.718;2022-09-09T15:58:52;4.15;;;1.25;;
25503;SDS011;13410;52.114;5.718;2022-09-09T16:01:18;3.90;;;1.25;;
25503;SDS011;13410;52.114;5.718;2022-09-09T16:03:44;4.53;;;1.52;;
25503;SDS011;13410;52.114;5.718;2022-09-09T16:06:15;5.22;;;1.27;;
25503;SDS011;13410;52.114;5.718;2022-09-09T16:08:46;2.63;;;1.25;;
25503;SDS011;13410;52.114;5.718;2022-09-09T16:11:27;6.00;;;2.40;;
25503;SDS011;13410;52.114;5.718;2022-09-09T16:13:54;4.32;;;1.38;;
25503;SDS011;13410;52.114;5.718;2022-09-09T16:16:22;4.45;;;1.40;;
25503;SDS011;13410;52.114;5.718;2022-09-09T16:18:53;4.13;;;1.63;;
25503;SDS011;13410;52.114;5.718;2022-09-09T16:23:53;4.50;;;1.58;;
25503;SDS011;13410;52.114;5.718;2022-09-09T16:26:23;5.00;;;1.30;;
25503;SDS011;13410;52.114;5.718;2022-09-09T16:28:48;2.63;;;1.00;;
25503;SDS011;13410;52.114;5.718;2022-09-09T16:31:19;3.60;;;1.83;;
25503;SDS011;13410;52.114;5.718;2022-09-09T16:33:46;7.10;;;2.03;;
25503;SDS011;13410;52.114;5.718;2022-09-09T16:36:17;3.00;;;1.35;;
25503;SDS011;13410;52.114;5.718;2022-09-09T16:38:45;3.83;;;1.70;;
25503;SDS011;13410;52.114;5.718;2022-09-09T16:41:11;3.63;;;1.30;;
25503;SDS011;13410;52.114;5.718;2022-09-09T16:43:39;3.97;;;1.30;;
25503;SDS011;13410;52.114;5.718;2022-09-09T16:46:18;3.05;;;1.40;;
25503;SDS011;13410;52.114;5.718;2022-09-09T16:48:45;2.63;;;1.40;;
25503;SDS011;13410;52.114;5.718;2022-09-09T16:51:17;2.00;;;1.30;;
25503;SDS011;13410;52.114;5.718;2022-09-09T16:53:44;3.80;;;1.60;;
25503;SDS011;13410;52.114;5.718;2022-09-09T16:56:12;3.83;;;1.23;;
25503;SDS011;13410;52.114;5.718;2022-09-09T16:58:43;3.13;;;1.73;;
25503;SDS011;13410;52.114;5.718;2022-09-09T17:01:24;4.57;;;1.80;;
25503;SDS011;13410;52.114;5.718;2022-09-09T17:03:52;2.35;;;1.50;;
25503;SDS011;13410;52.114;5.718;2022-09-09T17:06:22;2.60;;;1.48;;
25503;SDS011;13410;52.114;5.718;2022-09-09T17:08:53;2.08;;;1.25;;
25503;SDS011;13410;52.114;5.718;2022-09-09T17:11:20;2.85;;;1.23;;
25503;SDS011;13410;52.114;5.718;2022-09-09T17:13:46;2.47;;;1.48;;
25503;SDS011;13410;52.114;5.718;2022-09-09T17:16:12;1.60;;;1.15;;
25503;SDS011;13410;52.114;5.718;2022-09-09T17:18:39;5.18;;;1.50;;
25503;SDS011;13410;52.114;5.718;2022-09-09T17:21:06;2.00;;;1.40;;
25503;SDS011;13410;52.114;5.718;2022-09-09T17:23:34;2.25;;;1.30;;
25503;SDS011;13410;52.114;5.718;2022-09-09T17:26:03;2.90;;;1.40;;
25503;SDS011;13410;52.114;5.718;2022-09-09T17:28:30;1.75;;;1.10;;
25503;SDS011;13410;52.114;5.718;2022-09-09T17:30:57;2.17;;;1.38;;
25503;SDS011;13410;52.114;5.718;2022-09-09T17:33:26;4.32;;;2.00;;
25503;SDS011;13410;52.114;5.718;2022-09-09T17:35:53;2.88;;;1.67;;
25503;SDS011;13410;52.114;5.718;2022-09-09T17:38:19;3.83;;;1.42;;
25503;SDS011;13410;52.114;5.718;2022-09-09T17:40:45;2.33;;;1.33;;
25503;SDS011;13410;52.114;5.718;2022-09-09T17:43:10;2.72;;;1.67;;
25503;SDS011;13410;52.114;5.718;2022-09-09T17:45:36;4.68;;;2.05;;
25503;SDS011;13410;52.114;5.718;2022-09-09T17:48:02;3.83;;;2.38;;
25503;SDS011;13410;52.114;5.718;2022-09-09T17:50:29;3.60;;;2.05;;
25503;SDS011;13410;52.114;5.718;2022-09-09T17:52:57;3.88;;;2.05;;
25503;SDS011;13410;52.114;5.718;2022-09-09T17:55:22;3.08;;;2.15;;
25503;SDS011;13410;52.114;5.718;2022-09-09T17:57:48;3.75;;;1.80;;
25503;SDS011;13410;52.114;5.718;2022-09-09T18:00:13;2.83;;;2.10;;
25503;SDS011;13410;52.114;5.718;2022-09-09T18:02:39;4.82;;;2.50;;
25503;SDS011;13410;52.114;5.718;2022-09-09T18:05:05;2.70;;;1.60;;
25503;SDS011;13410;52.114;5.718;2022-09-09T18:07:30;3.35;;;1.58;;
25503;SDS011;13410;52.114;5.718;2022-09-09T18:09:56;3.45;;;2.05;;
25503;SDS011;13410;52.114;5.718;2022-09-09T18:12:21;4.40;;;3.60;;
25503;SDS011;13410;52.114;5.718;2022-09-09T18:14:47;6.57;;;3.88;;
25503;SDS011;13410;52.114;5.718;2022-09-09T18:17:14;6.63;;;3.80;;